createdAt,value
2022-09-28T00:01:25.270Z,0.90
2022-09-28T00:03:52.919Z,0.65
2022-09-28T00:06:20.711Z,0.75
2022-09-28T00:08:47.465Z,0.82
2022-09-28T00:11:15.571Z,0.80
2022-09-28T00:13:43.019Z,1.42
2022-09-28T00:16:11.968Z,0.70
2022-09-28T00:18:38.486Z,0.95
2022-09-28T00:21:06.781Z,0.88
2022-09-28T00:23:33.794Z,1.10
2022-09-28T00:26:04.631Z,0.80
2022-09-28T00:28:31.497Z,1.30
2022-09-28T00:30:58.774Z,1.20
2022-09-28T00:33:25.278Z,1.17
2022-09-28T00:35:56.167Z,1.38
2022-09-28T00:38:22.636Z,1.42
2022-09-28T00:40:49.185Z,1.17
2022-09-28T00:43:17.000Z,1.38
2022-09-28T00:45:43.641Z,1.30
2022-09-28T00:48:10.497Z,1.50
2022-09-28T00:50:38.204Z,1.40
2022-09-28T00:53:11.107Z,1.45
2022-09-28T00:55:40.539Z,1.55
2022-09-28T00:58:08.854Z,1.13
2022-09-28T01:00:35.456Z,1.58
2022-09-28T01:03:03.075Z,1.63
2022-09-28T01:05:30.409Z,2.00
2022-09-28T01:07:57.689Z,2.17
2022-09-28T01:10:24.298Z,2.28
2022-09-28T01:12:50.976Z,2.10
2022-09-28T01:15:17.515Z,1.73
2022-09-28T01:17:44.514Z,2.28
2022-09-28T01:20:24.127Z,1.50
2022-09-28T01:22:50.638Z,1.30
2022-09-28T01:25:25.983Z,1.42
2022-09-28T01:27:54.923Z,1.50
2022-09-28T01:30:21.698Z,1.38
2022-09-28T01:32:48.102Z,1.23
2022-09-28T01:35:18.518Z,1.80
2022-09-28T01:37:53.962Z,1.10
2022-09-28T01:40:21.869Z,1.55
2022-09-28T01:42:51.167Z,1.15
2022-09-28T01:45:23.860Z,1.13
2022-09-28T01:47:51.087Z,1.10
2022-09-28T01:50:21.014Z,1.17
2022-09-28T01:52:52.757Z,1.10
2022-09-28T01:55:25.131Z,0.90
2022-09-28T01:58:00.901Z,1.25
2022-09-28T02:00:27.891Z,1.00
2022-09-28T02:02:55.727Z,0.82
2022-09-28T02:05:29.612Z,1.10
2022-09-28T02:10:24.825Z,1.17
2022-09-28T02:13:11.579Z,1.40
2022-09-28T02:15:42.770Z,1.80
2022-09-28T02:18:10.235Z,1.58
2022-09-28T02:20:38.185Z,1.67
2022-09-28T02:23:04.791Z,1.48
2022-09-28T02:25:31.568Z,1.50
2022-09-28T02:27:58.071Z,2.17
2022-09-28T02:30:24.616Z,1.55
2022-09-28T02:32:53.697Z,1.73
2022-09-28T02:35:21.214Z,1.02
2022-09-28T02:37:48.418Z,1.10
2022-09-28T02:40:22.462Z,1.05
2022-09-28T02:43:01.277Z,0.90
2022-09-28T02:45:32.653Z,0.80
2022-09-28T02:48:05.415Z,0.70
2022-09-28T02:50:37.981Z,0.95
2022-09-28T02:53:04.422Z,0.88
2022-09-28T02:55:37.082Z,0.98
2022-09-28T02:58:22.465Z,1.08
2022-09-28T03:00:51.737Z,2.05
2022-09-28T03:03:20.654Z,0.63
2022-09-28T03:05:50.186Z,0.90
2022-09-28T03:08:25.736Z,0.73
2022-09-28T03:11:01.693Z,0.77
2022-09-28T03:13:28.660Z,0.60
2022-09-28T03:16:12.247Z,0.88
2022-09-28T03:18:39.210Z,1.00
2022-09-28T03:21:06.214Z,1.33
2022-09-28T03:23:32.734Z,0.73
2022-09-28T03:25:59.649Z,1.00
2022-09-28T03:28:28.047Z,0.80
2022-09-28T03:30:55.192Z,1.10
2022-09-28T03:33:22.312Z,0.77
2022-09-28T03:35:49.670Z,0.75
2022-09-28T03:38:17.234Z,0.73
2022-09-28T03:40:43.935Z,0.80
2022-09-28T03:43:10.456Z,0.70
2022-09-28T03:45:37.026Z,0.90
2022-09-28T03:48:03.741Z,1.15
2022-09-28T03:50:30.269Z,0.73
2022-09-28T03:53:01.436Z,1.23
2022-09-28T03:55:27.966Z,0.75
2022-09-28T03:57:56.070Z,0.77
2022-09-28T04:00:23.095Z,0.80
2022-09-28T04:02:49.659Z,1.08
2022-09-28T04:05:16.182Z,0.65
2022-09-28T04:07:42.786Z,0.82
2022-09-28T04:10:09.470Z,1.23
2022-09-28T04:12:35.936Z,0.70
2022-09-28T04:15:02.452Z,1.00
2022-09-28T04:17:28.928Z,0.88
2022-09-28T04:19:55.465Z,0.80
2022-09-28T04:22:23.583Z,0.73
2022-09-28T04:24:50.117Z,1.13
2022-09-28T04:27:35.252Z,0.80
2022-09-28T04:30:01.756Z,0.85
2022-09-28T04:32:28.278Z,0.90
2022-09-28T04:34:55.043Z,1.15
2022-09-28T04:37:21.509Z,1.45
2022-09-28T04:39:48.699Z,1.00
2022-09-28T04:42:15.965Z,1.10
2022-09-28T04:44:42.697Z,1.00
2022-09-28T04:47:09.188Z,0.80
2022-09-28T04:49:37.198Z,1.40
2022-09-28T04:52:04.187Z,0.80
2022-09-28T04:54:30.740Z,1.38
2022-09-28T04:56:57.466Z,1.17
2022-09-28T04:59:24.232Z,1.33
2022-09-28T05:01:50.714Z,1.80
2022-09-28T05:04:19.466Z,1.05
2022-09-28T05:06:47.791Z,1.35
2022-09-28T05:09:14.876Z,1.15
2022-09-28T05:11:42.118Z,0.70
2022-09-28T05:14:08.614Z,1.33
2022-09-28T05:16:35.910Z,1.17
2022-09-28T05:19:02.478Z,1.80
2022-09-28T05:21:30.149Z,1.30
2022-09-28T05:23:58.336Z,1.42
2022-09-28T05:26:24.971Z,1.38
2022-09-28T05:28:51.475Z,0.98
2022-09-28T05:31:18.079Z,1.45
2022-09-28T05:33:44.670Z,0.93
2022-09-28T05:36:11.249Z,0.90
2022-09-28T05:38:37.871Z,1.10
2022-09-28T05:41:06.724Z,1.20
2022-09-28T05:43:33.533Z,1.48
2022-09-28T05:46:00.667Z,1.40
2022-09-28T05:48:28.411Z,1.30
2022-09-28T05:50:54.906Z,1.05
2022-09-28T05:53:21.755Z,1.48
2022-09-28T05:55:48.373Z,1.25
2022-09-28T05:58:14.998Z,1.33
2022-09-28T06:00:41.486Z,1.83
2022-09-28T06:03:10.228Z,1.13
2022-09-28T06:05:38.895Z,1.65
2022-09-28T06:08:06.162Z,0.80
2022-09-28T06:10:33.418Z,1.00
2022-09-28T06:13:00.272Z,1.10
2022-09-28T06:15:27.969Z,0.88
2022-09-28T06:17:58.499Z,0.90
2022-09-28T06:20:26.084Z,0.90
2022-09-28T06:22:53.317Z,0.90
2022-09-28T06:25:19.958Z,1.20
2022-09-28T06:27:56.593Z,1.05
2022-09-28T06:30:24.362Z,1.40
2022-09-28T06:32:57.832Z,0.98
2022-09-28T06:35:25.520Z,1.50
2022-09-28T06:37:52.738Z,1.10
2022-09-28T06:40:20.271Z,0.68
2022-09-28T06:42:56.378Z,0.70
2022-09-28T06:45:25.500Z,0.45
2022-09-28T06:48:01.505Z,0.45
2022-09-28T06:50:32.366Z,0.63
2022-09-28T06:52:59.437Z,0.70
2022-09-28T06:55:26.709Z,0.52
2022-09-28T06:57:59.533Z,0.90
2022-09-28T07:00:27.488Z,0.90
2022-09-28T07:02:54.069Z,0.65
2022-09-28T07:05:24.190Z,0.73
2022-09-28T07:07:50.649Z,0.57
2022-09-28T07:10:17.236Z,0.80
2022-09-28T07:12:43.745Z,0.95
2022-09-28T07:15:10.278Z,0.98
2022-09-28T07:17:51.242Z,0.95
2022-09-28T07:20:21.502Z,1.42
2022-09-28T07:22:52.600Z,1.17
2022-09-28T07:25:19.101Z,2.00
2022-09-28T07:27:45.616Z,1.75
2022-09-28T07:30:12.345Z,1.05
2022-09-28T07:32:39.137Z,1.33
2022-09-28T07:35:08.184Z,1.45
2022-09-28T07:37:37.956Z,1.60
2022-09-28T07:40:23.744Z,1.10
2022-09-28T07:42:50.603Z,1.08
2022-09-28T07:45:17.526Z,1.00
2022-09-28T07:47:44.058Z,1.33
2022-09-28T07:50:10.569Z,1.77
2022-09-28T07:52:37.058Z,1.30
2022-09-28T07:55:07.310Z,1.25
2022-09-28T07:57:34.094Z,1.30
2022-09-28T08:00:02.247Z,1.42
2022-09-28T08:02:28.793Z,1.60
2022-09-28T08:04:56.466Z,1.55
2022-09-28T08:07:24.320Z,1.20
2022-09-28T08:09:51.170Z,1.52
2022-09-28T08:12:19.811Z,1.38
2022-09-28T08:14:46.494Z,3.28
2022-09-28T08:17:13.049Z,1.38
2022-09-28T08:19:58.480Z,1.08
2022-09-28T08:22:24.994Z,1.33
2022-09-28T08:24:51.552Z,1.85
2022-09-28T08:27:18.499Z,1.23
2022-09-28T08:29:45.025Z,2.17
2022-09-28T08:32:11.591Z,1.63
2022-09-28T08:34:39.074Z,1.35
2022-09-28T08:37:06.192Z,1.38
2022-09-28T08:39:34.658Z,1.27
2022-09-28T08:42:15.933Z,1.20
2022-09-28T08:44:48.301Z,1.85
2022-09-28T08:47:59.911Z,1.50
2022-09-28T08:50:28.805Z,1.42
2022-09-28T08:52:59.757Z,1.60
2022-09-28T08:55:37.855Z,1.48
2022-09-28T08:58:15.444Z,1.75
2022-09-28T09:00:49.305Z,2.20
2022-09-28T09:06:01.154Z,1.40
2022-09-28T09:08:44.709Z,1.40
2022-09-28T09:11:11.274Z,1.15
2022-09-28T09:13:40.849Z,1.33
2022-09-28T09:16:14.714Z,1.20
2022-09-28T09:21:13.606Z,1.67
2022-09-28T09:23:49.510Z,1.38
2022-09-28T09:26:22.477Z,2.65
2022-09-28T09:28:51.312Z,1.85
2022-09-28T09:31:30.352Z,1.70
2022-09-28T09:34:05.970Z,1.88
2022-09-28T09:36:50.599Z,2.47
2022-09-28T09:39:23.122Z,1.90
2022-09-28T09:42:01.997Z,2.00
2022-09-28T09:44:28.457Z,2.40
2022-09-28T09:47:08.179Z,1.50
2022-09-28T09:49:45.890Z,1.52
2022-09-28T09:52:22.111Z,2.17
2022-09-28T09:54:51.214Z,1.58
2022-09-28T09:57:20.173Z,1.58
2022-09-28T09:59:47.113Z,2.30
2022-09-28T10:02:19.952Z,1.45
2022-09-28T10:04:47.952Z,1.33
2022-09-28T10:07:18.863Z,1.67
2022-09-28T10:09:46.497Z,1.17
2022-09-28T10:12:15.983Z,1.70
2022-09-28T10:14:42.666Z,1.40
2022-09-28T10:17:12.194Z,1.42
2022-09-28T10:19:38.744Z,1.60
2022-09-28T10:22:06.150Z,1.00
2022-09-28T10:24:38.786Z,1.02
2022-09-28T10:27:07.745Z,1.17
2022-09-28T10:29:43.474Z,0.80
2022-09-28T10:32:20.977Z,0.98
2022-09-28T10:34:50.326Z,1.52
2022-09-28T10:37:18.253Z,0.88
2022-09-28T10:39:50.940Z,1.10
2022-09-28T10:42:26.612Z,0.80
2022-09-28T10:44:55.315Z,1.13
2022-09-28T10:47:23.370Z,1.10
2022-09-28T10:49:50.834Z,1.95
2022-09-28T10:52:31.179Z,1.08
2022-09-28T10:54:57.649Z,1.10
2022-09-28T10:57:29.173Z,1.08
2022-09-28T10:59:55.675Z,1.48
2022-09-28T11:02:27.100Z,1.02
2022-09-28T11:04:54.717Z,1.90
2022-09-28T11:07:25.598Z,1.65
2022-09-28T11:09:52.577Z,1.70
2022-09-28T11:12:23.962Z,1.15
2022-09-28T11:14:55.972Z,1.70
2022-09-28T11:17:32.966Z,1.48
2022-09-28T11:20:21.499Z,1.40
2022-09-28T11:22:53.690Z,1.60
2022-09-28T11:25:30.352Z,1.80
2022-09-28T11:27:56.814Z,2.38
2022-09-28T11:30:24.983Z,2.33
2022-09-28T11:32:53.314Z,2.20
2022-09-28T11:35:32.633Z,2.75
2022-09-28T11:37:59.188Z,2.30
2022-09-28T11:40:28.935Z,2.60
2022-09-28T11:43:03.822Z,3.10
2022-09-28T11:45:36.353Z,2.20
2022-09-28T11:48:04.725Z,4.07
2022-09-28T11:50:45.665Z,2.53
2022-09-28T11:53:18.091Z,2.70
2022-09-28T11:55:51.600Z,3.20
2022-09-28T11:58:22.501Z,2.88
2022-09-28T12:00:59.145Z,3.42
2022-09-28T12:03:29.633Z,2.45
2022-09-28T12:05:59.683Z,3.13
2022-09-28T12:08:30.611Z,2.22
2022-09-28T12:11:02.193Z,3.40
2022-09-28T12:13:33.359Z,2.60
2022-09-28T12:16:38.893Z,3.25
2022-09-28T12:19:07.022Z,2.72
2022-09-28T12:21:38.735Z,3.03
2022-09-28T12:24:09.875Z,3.03
2022-09-28T12:26:44.146Z,2.80
2022-09-28T12:29:14.173Z,2.88
2022-09-28T12:31:43.810Z,2.58
2022-09-28T12:34:10.377Z,3.03
2022-09-28T12:36:41.553Z,2.88
2022-09-28T12:39:40.947Z,2.88
2022-09-28T12:42:16.609Z,3.45
2022-09-28T12:45:06.159Z,3.22
2022-09-28T12:47:51.524Z,3.90
2022-09-28T12:50:37.976Z,2.47
2022-09-28T12:53:19.478Z,2.42
2022-09-28T12:55:58.554Z,2.33
2022-09-28T12:58:53.987Z,2.63
2022-09-28T13:01:40.375Z,3.17
2022-09-28T13:04:17.338Z,2.40
2022-09-28T13:06:55.254Z,2.38
2022-09-28T13:09:26.360Z,2.65
2022-09-28T13:12:25.719Z,2.85
2022-09-28T13:15:08.812Z,2.22
2022-09-28T13:17:41.318Z,3.40
2022-09-28T13:20:20.599Z,2.45
2022-09-28T13:23:16.656Z,2.95
2022-09-28T13:25:45.032Z,2.58
2022-09-28T13:28:13.238Z,2.30
2022-09-28T13:30:40.412Z,2.05
2022-09-28T13:33:07.947Z,2.25
2022-09-28T13:35:35.152Z,2.90
2022-09-28T13:38:17.506Z,3.38
2022-09-28T13:41:02.853Z,2.88
2022-09-28T13:43:48.961Z,3.28
2022-09-28T13:46:35.797Z,2.78
2022-09-28T13:49:05.385Z,3.55
2022-09-28T13:51:38.533Z,2.58
2022-09-28T13:54:22.972Z,6.90
2022-09-28T13:56:49.706Z,4.25
2022-09-28T13:59:34.535Z,4.20
2022-09-28T14:02:07.170Z,3.33
2022-09-28T14:04:52.690Z,3.17
2022-09-28T14:07:25.281Z,5.03
2022-09-28T14:10:10.532Z,2.83
2022-09-28T14:12:37.099Z,7.68
2022-09-28T14:15:13.613Z,3.00
2022-09-28T14:17:49.213Z,3.05
2022-09-28T14:20:16.698Z,6.18
2022-09-28T14:22:52.384Z,4.35
2022-09-28T14:25:26.720Z,3.85
2022-09-28T14:28:12.170Z,3.50
2022-09-28T14:30:41.692Z,7.45
2022-09-28T14:33:22.817Z,6.20
2022-09-28T14:35:58.525Z,9.32
2022-09-28T14:38:48.660Z,4.32
2022-09-28T14:41:27.230Z,7.00
2022-09-28T14:43:58.026Z,13.25
2022-09-28T14:46:27.608Z,4.55
2022-09-28T14:48:54.113Z,8.38
2022-09-28T14:51:26.866Z,8.05
2022-09-28T14:53:54.772Z,13.10
2022-09-28T14:56:21.758Z,8.43
2022-09-28T14:58:53.329Z,4.80
2022-09-28T15:01:21.079Z,11.98
2022-09-28T15:03:49.590Z,15.73
2022-09-28T15:06:16.300Z,4.43
2022-09-28T15:08:42.941Z,6.95
2022-09-28T15:11:18.188Z,13.30
2022-09-28T15:13:44.733Z,6.97
2022-09-28T15:16:14.432Z,6.80
2022-09-28T15:18:50.385Z,3.85
2022-09-28T15:21:17.155Z,16.50
2022-09-28T15:23:44.297Z,11.65
2022-09-28T15:26:21.898Z,4.53
2022-09-28T15:28:48.361Z,4.97
2022-09-28T15:31:20.941Z,8.60
2022-09-28T15:34:06.266Z,7.63
2022-09-28T15:36:36.381Z,7.80
2022-09-28T15:39:12.213Z,5.47
2022-09-28T15:41:38.784Z,4.25
2022-09-28T15:44:07.307Z,4.03
2022-09-28T15:46:35.216Z,3.65
2022-09-28T15:49:03.316Z,6.35
2022-09-28T15:51:29.934Z,6.00
2022-09-28T15:53:59.524Z,3.67
2022-09-28T15:56:26.263Z,5.75
2022-09-28T15:59:09.692Z,5.00
2022-09-28T16:01:40.248Z,3.55
2022-09-28T16:04:25.349Z,8.70
2022-09-28T16:07:10.222Z,4.40
2022-09-28T16:09:55.120Z,6.53
2022-09-28T16:12:22.071Z,4.57
2022-09-28T16:14:49.791Z,4.45
2022-09-28T16:17:29.934Z,3.88
2022-09-28T16:19:56.416Z,4.93
2022-09-28T16:22:26.709Z,3.70
2022-09-28T16:24:56.786Z,4.50
2022-09-28T16:27:23.270Z,4.97
2022-09-28T16:30:03.730Z,6.32
2022-09-28T16:32:41.602Z,4.95
2022-09-28T16:35:11.101Z,5.75
2022-09-28T16:37:42.726Z,3.90
2022-09-28T16:40:09.773Z,3.97
2022-09-28T16:42:36.855Z,4.10
2022-09-28T16:45:05.145Z,4.15
2022-09-28T16:47:35.124Z,5.47
2022-09-28T16:50:02.616Z,5.00
2022-09-28T16:52:47.853Z,4.85
2022-09-28T16:58:04.932Z,3.70
2022-09-28T17:00:32.599Z,5.63
2022-09-28T17:02:59.330Z,4.35
2022-09-28T17:05:25.842Z,4.50
2022-09-28T17:08:02.986Z,3.83
2022-09-28T17:10:45.024Z,4.15
2022-09-28T17:13:16.483Z,4.20
2022-09-28T17:15:43.167Z,4.65
2022-09-28T17:18:12.853Z,4.30
2022-09-28T17:20:40.186Z,3.45
2022-09-28T17:23:06.670Z,5.38
2022-09-28T17:25:33.635Z,3.40
2022-09-28T17:28:00.552Z,4.82
2022-09-28T17:30:27.124Z,3.40
2022-09-28T17:32:53.625Z,4.47
2022-09-28T17:35:24.685Z,4.32
2022-09-28T17:37:51.973Z,4.47
2022-09-28T17:40:28.654Z,4.82
2022-09-28T17:42:56.457Z,4.00
2022-09-28T17:45:26.979Z,4.88
2022-09-28T17:47:53.573Z,4.10
2022-09-28T17:50:24.396Z,4.95
2022-09-28T17:52:52.494Z,5.10
2022-09-28T17:55:23.183Z,5.55
2022-09-28T17:57:50.047Z,5.22
2022-09-28T18:00:17.726Z,5.40
2022-09-28T18:02:44.751Z,5.57
2022-09-28T18:05:13.573Z,4.43
2022-09-28T18:07:44.202Z,3.92
2022-09-28T18:10:18.223Z,4.53
2022-09-28T18:12:44.923Z,4.07
2022-09-28T18:15:11.573Z,3.88
2022-09-28T18:17:38.390Z,4.95
2022-09-28T18:20:06.321Z,4.05
2022-09-28T18:22:33.051Z,4.68
2022-09-28T18:24:59.610Z,4.00
2022-09-28T18:27:27.554Z,3.75
2022-09-28T18:29:54.094Z,4.15
2022-09-28T18:32:20.686Z,4.47
2022-09-28T18:34:47.181Z,4.15
2022-09-28T18:37:13.699Z,5.30
2022-09-28T18:39:40.404Z,5.65
2022-09-28T18:42:06.925Z,4.63
2022-09-28T18:44:34.023Z,4.05
2022-09-28T18:47:02.410Z,3.85
2022-09-28T18:49:30.514Z,4.20
2022-09-28T18:51:57.136Z,5.07
2022-09-28T18:54:23.759Z,4.78
2022-09-28T18:56:53.579Z,3.53
2022-09-28T18:59:20.114Z,4.15
2022-09-28T19:01:46.678Z,4.30
2022-09-28T19:04:13.673Z,3.80
2022-09-28T19:06:41.385Z,4.22
2022-09-28T19:09:08.431Z,3.40
2022-09-28T19:11:35.249Z,3.40
2022-09-28T19:14:03.228Z,3.30
2022-09-28T19:16:30.630Z,3.17
2022-09-28T19:18:57.853Z,3.92
2022-09-28T19:21:24.881Z,2.83
2022-09-28T19:23:52.150Z,4.43
2022-09-28T19:26:21.079Z,3.50
2022-09-28T19:28:47.853Z,3.47
2022-09-28T19:31:14.662Z,4.03
2022-09-28T19:33:41.915Z,3.40
2022-09-28T19:36:09.780Z,3.55
2022-09-28T19:38:37.754Z,3.75
2022-09-28T19:41:37.821Z,3.88
2022-09-28T19:44:13.289Z,4.20
2022-09-28T19:46:40.589Z,4.13
2022-09-28T19:49:08.488Z,4.05
2022-09-28T19:51:43.848Z,3.05
2022-09-28T19:54:33.108Z,4.25
2022-09-28T19:57:07.871Z,4.13
2022-09-28T19:59:35.747Z,4.30
2022-09-28T20:02:03.202Z,3.63
2022-09-28T20:04:30.086Z,3.25
2022-09-28T20:06:56.595Z,3.55
2022-09-28T20:09:23.212Z,4.93
2022-09-28T20:11:51.892Z,4.53
2022-09-28T20:14:23.395Z,4.13
2022-09-28T20:19:21.538Z,4.93
2022-09-28T20:21:51.112Z,3.42
2022-09-28T20:24:18.142Z,5.00
2022-09-28T20:26:45.855Z,6.45
2022-09-28T20:29:12.928Z,9.52
2022-09-28T20:31:39.889Z,8.85
2022-09-28T20:34:06.446Z,6.68
2022-09-28T20:36:33.071Z,6.38
2022-09-28T20:39:03.091Z,11.93
2022-09-28T20:41:35.703Z,6.38
2022-09-28T20:44:05.701Z,4.75
2022-09-28T20:46:33.322Z,14.32
2022-09-28T20:49:00.072Z,10.73
2022-09-28T20:51:26.831Z,18.27
2022-09-28T20:53:57.328Z,11.27
2022-09-28T20:56:25.228Z,6.63
2022-09-28T20:58:52.016Z,12.15
2022-09-28T21:01:19.974Z,6.57
2022-09-28T21:03:50.785Z,5.18
2022-09-28T21:06:18.856Z,8.23
2022-09-28T21:08:45.895Z,4.88
2022-09-28T21:11:13.196Z,8.57
2022-09-28T21:13:41.618Z,7.43
2022-09-28T21:16:08.748Z,6.78
2022-09-28T21:18:35.470Z,5.05
2022-09-28T21:21:02.018Z,5.72
2022-09-28T21:23:28.623Z,5.05
2022-09-28T21:26:02.474Z,4.07
2022-09-28T21:28:28.982Z,5.47
2022-09-28T21:30:55.660Z,4.80
2022-09-28T21:33:22.389Z,4.55
2022-09-28T21:35:48.908Z,4.68
2022-09-28T21:38:15.423Z,4.18
2022-09-28T21:40:42.126Z,4.97
2022-09-28T21:43:08.718Z,4.45
2022-09-28T21:45:35.354Z,4.90
2022-09-28T21:48:01.852Z,3.75
2022-09-28T21:50:28.579Z,5.05
2022-09-28T21:52:55.550Z,4.75
2022-09-28T21:55:22.746Z,4.57
2022-09-28T21:57:53.151Z,4.57
2022-09-28T22:00:23.265Z,5.40
2022-09-28T22:02:50.250Z,4.90
2022-09-28T22:05:17.122Z,4.88
2022-09-28T22:07:43.891Z,4.82
2022-09-28T22:10:12.290Z,4.53
2022-09-28T22:12:38.868Z,5.18
2022-09-28T22:15:05.606Z,4.45
2022-09-28T22:17:32.063Z,4.50
2022-09-28T22:19:58.633Z,5.43
2022-09-28T22:22:28.924Z,4.43
2022-09-28T22:24:56.214Z,5.28
2022-09-28T22:27:22.793Z,4.63
2022-09-28T22:29:51.110Z,4.50
2022-09-28T22:32:17.668Z,4.25
2022-09-28T22:34:44.147Z,3.78
2022-09-28T22:37:10.599Z,4.63
2022-09-28T22:39:37.968Z,4.70
2022-09-28T22:42:04.678Z,4.05
2022-09-28T22:44:31.242Z,5.13
2022-09-28T22:46:58.130Z,5.38
2022-09-28T22:49:24.687Z,4.47
2022-09-28T22:51:51.845Z,4.63
2022-09-28T22:54:18.410Z,4.20
2022-09-28T22:56:44.998Z,5.00
2022-09-28T22:59:11.794Z,4.07
2022-09-28T23:01:38.755Z,4.50
2022-09-28T23:04:05.797Z,4.25
2022-09-28T23:06:33.221Z,4.50
2022-09-28T23:09:00.001Z,4.40
2022-09-28T23:11:26.858Z,4.53
2022-09-28T23:13:53.972Z,4.78
2022-09-28T23:16:20.863Z,4.07
2022-09-28T23:18:49.352Z,4.78
2022-09-28T23:21:20.030Z,3.72
2022-09-28T23:23:50.676Z,4.60
2022-09-28T23:26:18.702Z,6.22
2022-09-28T23:28:45.674Z,3.65
2022-09-28T23:31:14.561Z,4.43
2022-09-28T23:33:41.078Z,3.78
2022-09-28T23:36:07.939Z,3.90
2022-09-28T23:38:34.622Z,4.30
2022-09-28T23:41:01.197Z,4.43
2022-09-28T23:43:27.880Z,4.25
2022-09-28T23:45:54.345Z,5.18
2022-09-28T23:48:20.831Z,6.32
2022-09-28T23:50:47.385Z,3.92
2022-09-28T23:53:14.563Z,4.43
2022-09-28T23:55:44.093Z,4.50
2022-09-28T23:58:11.420Z,5.65
